createdAt,value
2023-04-07T00:02:16.811Z,11.80
2023-04-07T00:04:46.538Z,11.00
2023-04-07T00:07:16.151Z,9.00
2023-04-07T00:09:45.753Z,10.10
2023-04-07T00:12:15.216Z,8.40
2023-04-07T00:14:44.618Z,12.10
2023-04-07T00:17:14.018Z,9.50
2023-04-07T00:19:44.213Z,10.30
2023-04-07T00:22:13.684Z,10.30
2023-04-07T00:24:43.623Z,8.50
2023-04-07T00:27:12.989Z,8.00
2023-04-07T00:29:43.968Z,11.60
2023-04-07T00:32:13.389Z,11.60
2023-04-07T00:34:42.812Z,12.00
2023-04-07T00:37:12.301Z,6.30
2023-04-07T00:39:41.663Z,11.00
2023-04-07T00:42:11.120Z,10.50
2023-04-07T00:44:41.024Z,13.00
2023-04-07T00:47:11.414Z,12.90
2023-04-07T00:49:40.801Z,14.90
2023-04-07T00:52:12.353Z,7.60
2023-04-07T00:54:43.555Z,9.20
2023-04-07T00:57:13.040Z,11.50
2023-04-07T00:59:42.475Z,10.60
2023-04-07T01:02:22.257Z,10.90
2023-04-07T01:04:59.459Z,10.00
2023-04-07T01:07:39.095Z,11.70
2023-04-07T01:10:19.733Z,8.70
2023-04-07T01:13:31.501Z,7.80
2023-04-07T01:16:18.976Z,8.50
2023-04-07T01:18:57.662Z,8.40
2023-04-07T01:21:29.160Z,10.00
2023-04-07T01:24:27.108Z,10.30
2023-04-07T01:27:32.011Z,11.80
2023-04-07T01:30:05.255Z,10.00
2023-04-07T01:32:37.769Z,11.80
2023-04-07T01:35:12.616Z,10.80
2023-04-07T01:37:45.854Z,10.60
2023-04-07T01:40:16.722Z,12.90
2023-04-07T01:42:47.844Z,11.80
2023-04-07T01:45:18.536Z,10.70
2023-04-07T01:47:48.552Z,12.00
2023-04-07T01:50:18.191Z,12.40
2023-04-07T01:52:48.343Z,13.90
2023-04-07T01:55:18.223Z,13.10
2023-04-07T01:57:57.107Z,12.50
2023-04-07T02:00:26.444Z,14.30
2023-04-07T02:03:00.134Z,11.50
2023-04-07T02:05:31.349Z,12.70
2023-04-07T02:08:09.040Z,12.60
2023-04-07T02:10:39.474Z,13.10
2023-04-07T02:13:13.762Z,9.70
2023-04-07T02:15:45.991Z,9.00
2023-04-07T02:18:16.647Z,12.70
2023-04-07T02:20:47.144Z,9.80
2023-04-07T02:23:16.576Z,17.50
2023-04-07T02:25:46.040Z,13.30
2023-04-07T02:28:16.059Z,10.40
2023-04-07T02:30:47.666Z,11.60
2023-04-07T02:33:17.334Z,11.80
2023-04-07T02:35:46.709Z,11.10
2023-04-07T02:38:16.043Z,10.60
2023-04-07T02:40:45.658Z,14.00
2023-04-07T02:43:14.965Z,13.50
2023-04-07T02:45:44.448Z,11.90
2023-04-07T02:48:13.744Z,14.90
2023-04-07T02:50:43.300Z,12.10
2023-04-07T02:53:12.613Z,11.30
2023-04-07T02:55:42.255Z,13.40
2023-04-07T02:58:11.819Z,13.20
2023-04-07T03:00:45.696Z,12.40
2023-04-07T03:03:18.977Z,12.70
2023-04-07T03:06:01.182Z,12.60
2023-04-07T03:08:30.697Z,13.20
2023-04-07T03:11:00.096Z,14.30
2023-04-07T03:13:32.472Z,12.80
2023-04-07T03:16:01.879Z,12.80
2023-04-07T03:18:34.151Z,15.00
2023-04-07T03:21:03.830Z,13.10
2023-04-07T03:23:33.552Z,17.20
2023-04-07T03:26:03.169Z,13.30
2023-04-07T03:28:36.076Z,12.50
2023-04-07T03:31:05.676Z,15.30
2023-04-07T03:33:35.565Z,15.30
2023-04-07T03:36:05.806Z,13.50
2023-04-07T03:38:35.650Z,12.70
2023-04-07T03:41:05.507Z,14.60
2023-04-07T03:43:34.987Z,14.20
2023-04-07T03:46:04.639Z,19.90
2023-04-07T03:48:34.073Z,16.20
2023-04-07T03:51:07.839Z,14.20
2023-04-07T03:53:37.789Z,16.50
2023-04-07T03:56:17.335Z,13.70
2023-04-07T03:58:53.212Z,14.60
2023-04-07T04:01:28.528Z,16.60
2023-04-07T04:03:59.000Z,16.30
2023-04-07T04:06:30.178Z,13.80
2023-04-07T04:09:15.761Z,13.60
2023-04-07T04:11:47.940Z,13.30
2023-04-07T04:14:17.812Z,12.10
2023-04-07T04:16:54.273Z,16.50
2023-04-07T04:19:40.425Z,18.10
2023-04-07T04:22:24.843Z,15.90
2023-04-07T04:24:56.641Z,16.60
2023-04-07T04:27:27.180Z,18.40
2023-04-07T04:30:02.330Z,15.30
2023-04-07T04:32:39.787Z,19.80
2023-04-07T04:35:10.201Z,15.60
2023-04-07T04:37:46.045Z,16.00
2023-04-07T04:40:16.814Z,18.90
2023-04-07T04:42:47.059Z,13.40
2023-04-07T04:45:16.790Z,14.20
2023-04-07T04:47:49.044Z,15.80
2023-04-07T04:50:19.180Z,20.80
2023-04-07T04:52:48.962Z,19.80
2023-04-07T04:55:27.379Z,19.50
2023-04-07T04:57:57.000Z,15.30
2023-04-07T05:00:35.172Z,18.60
2023-04-07T05:03:06.785Z,18.40
2023-04-07T05:05:39.067Z,21.60
2023-04-07T05:08:11.766Z,22.50
2023-04-07T05:10:42.130Z,22.50
2023-04-07T05:13:14.766Z,29.30
2023-04-07T05:15:44.203Z,18.10
2023-04-07T05:18:16.120Z,14.20
2023-04-07T05:20:47.417Z,14.10
2023-04-07T05:23:24.302Z,21.80
2023-04-07T05:25:53.850Z,15.10
2023-04-07T05:28:23.408Z,19.00
2023-04-07T05:30:53.696Z,15.90
2023-04-07T05:33:24.161Z,17.30
2023-04-07T05:35:55.645Z,16.10
2023-04-07T05:38:25.435Z,17.20
2023-04-07T05:40:57.285Z,18.10
2023-04-07T05:43:29.717Z,13.00
2023-04-07T05:45:59.082Z,15.20
2023-04-07T05:48:28.610Z,18.90
2023-04-07T05:50:58.239Z,19.50
2023-04-07T05:53:27.744Z,21.90
2023-04-07T05:55:57.358Z,35.90
2023-04-07T06:01:13.977Z,17.20
2023-04-07T06:03:43.609Z,25.80
2023-04-07T06:06:19.186Z,18.80
2023-04-07T06:08:48.935Z,22.60
2023-04-07T06:11:18.437Z,20.00
2023-04-07T06:13:48.135Z,15.40
2023-04-07T06:16:19.515Z,17.10
2023-04-07T06:18:49.683Z,18.80
2023-04-07T06:21:18.969Z,19.60
2023-04-07T06:23:48.854Z,13.20
2023-04-07T06:26:18.667Z,11.90
2023-04-07T06:28:48.161Z,18.10
2023-04-07T06:31:18.994Z,19.70
2023-04-07T06:33:48.639Z,20.60
2023-04-07T06:36:18.495Z,18.00
2023-04-07T06:38:48.214Z,19.20
2023-04-07T06:41:17.753Z,19.30
2023-04-07T06:43:51.540Z,21.70
2023-04-07T06:46:21.403Z,18.80
2023-04-07T06:48:50.915Z,18.20
2023-04-07T06:51:20.283Z,13.60
2023-04-07T06:53:50.007Z,19.10
2023-04-07T06:56:19.612Z,20.10
2023-04-07T06:58:48.993Z,13.90
2023-04-07T07:01:18.441Z,11.60
2023-04-07T07:03:48.373Z,13.50
2023-04-07T07:06:18.231Z,18.70
2023-04-07T07:08:47.688Z,17.20
2023-04-07T07:11:17.079Z,13.60
2023-04-07T07:13:46.842Z,20.20
2023-04-07T07:16:19.681Z,20.50
2023-04-07T07:18:49.123Z,14.90
2023-04-07T07:21:19.515Z,15.90
2023-04-07T07:23:49.256Z,13.20
2023-04-07T07:26:18.964Z,18.70
2023-04-07T07:28:48.491Z,14.90
2023-04-07T07:31:18.943Z,12.30
2023-04-07T07:33:50.335Z,15.80
2023-04-07T07:36:20.153Z,16.80
2023-04-07T07:38:53.900Z,15.90
2023-04-07T07:41:24.008Z,17.70
2023-04-07T07:43:55.371Z,18.30
2023-04-07T07:46:26.352Z,19.10
2023-04-07T07:48:56.628Z,12.30
2023-04-07T07:51:26.336Z,16.40
2023-04-07T07:53:55.794Z,16.10
2023-04-07T07:56:25.289Z,21.10
2023-04-07T07:58:55.729Z,22.40
2023-04-07T08:01:26.183Z,16.10
2023-04-07T08:03:55.897Z,19.20
2023-04-07T08:06:25.572Z,14.70
2023-04-07T08:08:55.014Z,17.00
2023-04-07T08:11:24.577Z,14.60
2023-04-07T08:13:54.558Z,17.60
2023-04-07T08:16:24.169Z,11.20
2023-04-07T08:18:57.760Z,12.60
2023-04-07T08:21:28.019Z,15.20
2023-04-07T08:23:57.943Z,15.90
2023-04-07T08:26:27.400Z,17.90
2023-04-07T08:28:56.899Z,18.70
2023-04-07T08:31:28.750Z,18.20
2023-04-07T08:36:30.546Z,11.60
2023-04-07T08:39:01.574Z,27.00
2023-04-07T08:41:39.820Z,25.30
2023-04-07T08:44:10.806Z,15.80
2023-04-07T08:46:41.617Z,12.50
2023-04-07T08:49:14.317Z,16.00
2023-04-07T08:51:48.690Z,14.60
2023-04-07T08:54:21.941Z,14.80
2023-04-07T08:59:28.818Z,14.40
2023-04-07T09:01:59.950Z,15.20
2023-04-07T09:04:29.821Z,12.10
2023-04-07T09:07:00.300Z,11.50
2023-04-07T09:09:31.884Z,11.50
2023-04-07T09:12:01.930Z,14.00
2023-04-07T09:14:31.843Z,12.80
2023-04-07T09:17:01.705Z,17.20
2023-04-07T09:19:33.137Z,13.90
2023-04-07T09:22:05.570Z,11.60
2023-04-07T09:24:36.885Z,11.50
2023-04-07T09:27:18.166Z,14.70
2023-04-07T09:29:51.550Z,11.80
2023-04-07T09:32:41.465Z,11.40
2023-04-07T09:35:14.323Z,12.10
2023-04-07T09:37:46.116Z,9.50
2023-04-07T09:40:27.343Z,15.50
2023-04-07T09:42:58.999Z,10.30
2023-04-07T09:45:36.703Z,9.10
2023-04-07T09:48:20.289Z,15.20
2023-04-07T09:50:49.801Z,12.30
2023-04-07T09:53:23.416Z,10.90
2023-04-07T09:55:53.935Z,12.10
2023-04-07T09:58:24.808Z,10.20
2023-04-07T10:00:54.315Z,12.10
2023-04-07T10:03:24.782Z,11.60
2023-04-07T10:05:54.959Z,13.50
2023-04-07T10:08:24.520Z,9.20
2023-04-07T10:10:54.010Z,13.60
2023-04-07T10:13:25.506Z,8.10
2023-04-07T10:15:56.468Z,10.60
2023-04-07T10:18:37.428Z,11.90
2023-04-07T10:21:15.611Z,14.70
2023-04-07T10:24:00.135Z,9.10
2023-04-07T10:26:35.301Z,9.60
2023-04-07T10:29:11.018Z,9.30
2023-04-07T10:31:42.136Z,11.20
2023-04-07T10:34:15.167Z,14.30
2023-04-07T10:37:15.122Z,6.90
2023-04-07T10:39:44.688Z,10.20
2023-04-07T10:42:39.389Z,11.00
2023-04-07T10:45:10.716Z,15.00
2023-04-07T10:48:01.075Z,10.20
2023-04-07T10:50:38.874Z,8.40
2023-04-07T10:53:12.341Z,14.20
2023-04-07T10:55:55.066Z,9.90
2023-04-07T10:58:34.935Z,11.50
2023-04-07T11:01:05.281Z,13.10
2023-04-07T11:03:41.469Z,9.10
2023-04-07T11:06:13.949Z,11.50
2023-04-07T11:08:49.537Z,8.70
2023-04-07T11:11:40.996Z,11.10
2023-04-07T11:14:10.535Z,9.80
2023-04-07T11:16:43.429Z,11.20
2023-04-07T11:19:13.979Z,11.60
2023-04-07T11:21:44.860Z,7.50
2023-04-07T11:24:40.420Z,19.60
2023-04-07T11:27:15.212Z,14.00
2023-04-07T11:32:14.037Z,12.10
2023-04-07T11:34:45.040Z,34.70
2023-04-07T11:37:29.115Z,8.80
2023-04-07T11:39:59.727Z,8.00
2023-04-07T11:42:38.238Z,8.70
2023-04-07T11:45:18.789Z,8.40
2023-04-07T11:47:50.021Z,8.20
2023-04-07T11:50:41.448Z,7.20
2023-04-07T11:53:11.807Z,7.90
2023-04-07T11:55:41.522Z,9.60
2023-04-07T11:58:11.826Z,12.30
2023-04-07T12:01:05.430Z,10.40
2023-04-07T12:03:38.445Z,25.10
2023-04-07T12:08:44.765Z,12.30
2023-04-07T12:11:14.934Z,14.40
2023-04-07T12:13:44.364Z,9.90
2023-04-07T12:16:15.126Z,8.70
2023-04-07T12:18:46.267Z,9.30
2023-04-07T12:21:20.906Z,9.10
2023-04-07T12:23:51.916Z,8.90
2023-04-07T12:26:23.415Z,15.90
2023-04-07T12:28:55.507Z,9.00
2023-04-07T12:31:24.993Z,7.80
2023-04-07T12:33:56.613Z,9.10
2023-04-07T12:36:29.958Z,9.50
2023-04-07T12:39:00.228Z,8.50
2023-04-07T12:41:31.462Z,8.50
2023-04-07T12:44:02.716Z,12.60
2023-04-07T12:46:32.408Z,12.90
2023-04-07T12:49:01.918Z,15.90
2023-04-07T12:51:33.620Z,9.50
2023-04-07T12:54:03.845Z,12.40
2023-04-07T12:56:33.331Z,9.80
2023-04-07T12:59:22.266Z,9.30
2023-04-07T13:01:52.037Z,8.60
2023-04-07T13:04:23.059Z,10.70
2023-04-07T13:06:54.964Z,30.60
2023-04-07T13:09:25.709Z,13.00
2023-04-07T13:11:55.120Z,8.70
2023-04-07T13:14:25.483Z,9.40
2023-04-07T13:16:54.958Z,8.90
2023-04-07T13:19:24.513Z,14.90
2023-04-07T13:21:56.009Z,17.90
2023-04-07T13:24:27.698Z,15.10
2023-04-07T13:26:58.507Z,18.70
2023-04-07T13:29:29.427Z,9.00
2023-04-07T13:32:09.835Z,9.10
2023-04-07T13:34:40.126Z,11.60
2023-04-07T13:37:09.543Z,10.60
2023-04-07T13:39:38.887Z,8.00
2023-04-07T13:42:12.131Z,15.40
2023-04-07T13:44:43.977Z,11.20
2023-04-07T13:47:15.166Z,9.80
2023-04-07T13:49:47.210Z,12.40
2023-04-07T13:52:16.887Z,12.20
2023-04-07T13:54:46.937Z,8.50
2023-04-07T13:57:20.927Z,9.90
2023-04-07T13:59:59.746Z,9.20
2023-04-07T14:02:33.085Z,12.10
2023-04-07T14:05:03.078Z,8.80
2023-04-07T14:07:32.685Z,10.40
2023-04-07T14:10:02.048Z,12.40
2023-04-07T14:12:31.672Z,8.00
2023-04-07T14:15:02.291Z,9.50
2023-04-07T14:17:31.757Z,8.00
2023-04-07T14:20:01.214Z,8.90
2023-04-07T14:22:30.655Z,9.60
2023-04-07T14:25:00.395Z,8.10
2023-04-07T14:27:32.818Z,14.60
2023-04-07T14:30:02.918Z,10.50
2023-04-07T14:32:34.579Z,10.50
2023-04-07T14:35:07.376Z,8.90
2023-04-07T14:37:37.196Z,8.80
2023-04-07T14:40:08.498Z,10.10
2023-04-07T14:42:37.883Z,9.40
2023-04-07T14:45:08.438Z,9.90
2023-04-07T14:47:37.819Z,11.80
2023-04-07T14:50:08.751Z,13.30
2023-04-07T14:52:39.720Z,10.50
2023-04-07T14:55:11.118Z,11.70
2023-04-07T14:57:40.500Z,22.80
2023-04-07T15:00:10.885Z,8.10
2023-04-07T15:02:40.897Z,8.30
2023-04-07T15:05:11.093Z,8.60
2023-04-07T15:07:41.994Z,10.00
2023-04-07T15:10:11.525Z,9.00
2023-04-07T15:12:40.986Z,14.00
2023-04-07T15:15:10.620Z,9.10
2023-04-07T15:17:44.589Z,9.70
2023-04-07T15:20:14.821Z,8.50
2023-04-07T15:22:44.978Z,11.40
2023-04-07T15:25:14.479Z,11.50
2023-04-07T15:27:44.579Z,9.60
2023-04-07T15:30:14.153Z,10.70
2023-04-07T15:33:02.987Z,11.20
2023-04-07T15:35:32.424Z,11.70
2023-04-07T15:38:03.095Z,10.50
2023-04-07T15:40:36.936Z,11.90
2023-04-07T15:43:07.118Z,13.80
2023-04-07T15:45:45.063Z,15.10
2023-04-07T15:48:15.020Z,16.00
2023-04-07T15:50:47.146Z,16.80
2023-04-07T15:53:16.716Z,15.00
2023-04-07T15:55:46.880Z,15.60
2023-04-07T15:58:17.585Z,68.10
2023-04-07T16:00:50.284Z,39.40
2023-04-07T16:03:21.050Z,16.80
2023-04-07T16:05:51.421Z,15.60
2023-04-07T16:08:21.313Z,15.30
2023-04-07T16:10:51.108Z,16.10
2023-04-07T16:13:20.838Z,24.70
2023-04-07T16:15:50.233Z,17.00
2023-04-07T16:18:19.537Z,15.90
2023-04-07T16:20:49.026Z,14.70
2023-04-07T16:23:20.679Z,14.50
2023-04-07T16:25:50.964Z,16.60
2023-04-07T16:28:20.404Z,21.10
2023-04-07T16:30:50.957Z,16.90
2023-04-07T16:33:25.962Z,15.90
2023-04-07T16:35:55.802Z,15.80
2023-04-07T16:38:27.507Z,15.60
2023-04-07T16:41:03.859Z,17.50
2023-04-07T16:43:34.099Z,12.20
2023-04-07T16:46:04.468Z,17.70
2023-04-07T16:48:34.009Z,17.50
2023-04-07T16:51:06.755Z,12.30
2023-04-07T16:53:37.302Z,11.20
2023-04-07T16:56:07.620Z,15.80
2023-04-07T16:58:40.352Z,14.00
2023-04-07T17:01:10.203Z,13.10
2023-04-07T17:03:44.398Z,16.00
2023-04-07T17:06:16.538Z,14.70
2023-04-07T17:08:46.506Z,15.80
2023-04-07T17:11:16.245Z,13.30
2023-04-07T17:13:45.569Z,15.30
2023-04-07T17:16:15.059Z,15.00
2023-04-07T17:18:44.426Z,16.20
2023-04-07T17:21:15.776Z,12.20
2023-04-07T17:23:45.699Z,13.10
2023-04-07T17:26:17.446Z,14.80
2023-04-07T17:28:47.594Z,14.80
2023-04-07T17:31:18.268Z,15.90
2023-04-07T17:33:48.956Z,13.80
2023-04-07T17:36:20.211Z,13.00
2023-04-07T17:38:49.966Z,13.70
2023-04-07T17:41:20.329Z,16.40
2023-04-07T17:43:49.804Z,15.00
2023-04-07T17:46:22.639Z,17.20
2023-04-07T17:48:52.436Z,14.40
2023-04-07T17:51:22.105Z,13.20
2023-04-07T17:53:53.917Z,13.10
2023-04-07T17:56:25.682Z,16.20
2023-04-07T17:59:01.913Z,30.10
2023-04-07T18:01:31.383Z,22.70
2023-04-07T18:04:00.929Z,19.20
2023-04-07T18:06:30.442Z,18.00
2023-04-07T18:09:00.942Z,22.00
2023-04-07T18:11:30.465Z,19.80
2023-04-07T18:14:00.352Z,16.10
2023-04-07T18:16:29.909Z,16.60
2023-04-07T18:19:00.685Z,19.00
2023-04-07T18:21:31.397Z,18.60
2023-04-07T18:24:00.705Z,18.70
2023-04-07T18:26:30.111Z,16.00
2023-04-07T18:28:59.672Z,21.80
2023-04-07T18:31:29.105Z,17.70
2023-04-07T18:34:02.489Z,17.10
2023-04-07T18:36:31.889Z,15.90
2023-04-07T18:39:01.185Z,18.90
2023-04-07T18:41:32.125Z,20.20
2023-04-07T18:44:01.543Z,17.90
2023-04-07T18:46:31.799Z,17.70
2023-04-07T18:49:01.377Z,18.60
2023-04-07T18:51:31.940Z,17.10
2023-04-07T18:54:01.409Z,20.70
2023-04-07T18:56:32.144Z,18.30
2023-04-07T18:59:01.508Z,18.00
2023-04-07T19:01:31.650Z,18.20
2023-04-07T19:04:03.485Z,17.50
2023-04-07T19:06:33.138Z,17.10
2023-04-07T19:09:04.097Z,18.30
2023-04-07T19:11:33.433Z,18.60
2023-04-07T19:14:03.608Z,18.90
2023-04-07T19:16:35.179Z,17.20
2023-04-07T19:19:05.322Z,16.80
2023-04-07T19:21:35.120Z,34.10
2023-04-07T19:24:04.620Z,21.40
2023-04-07T19:26:35.222Z,16.00
2023-04-07T19:29:07.590Z,18.60
2023-04-07T19:31:37.206Z,18.70
2023-04-07T19:34:08.577Z,21.60
2023-04-07T19:36:38.675Z,16.80
2023-04-07T19:39:08.100Z,18.20
2023-04-07T19:41:38.766Z,17.90
2023-04-07T19:44:08.278Z,20.60
2023-04-07T19:46:37.793Z,21.50
2023-04-07T19:49:07.120Z,19.60
2023-04-07T19:51:37.005Z,20.80
2023-04-07T19:54:06.763Z,20.90
2023-04-07T19:56:37.751Z,19.90
2023-04-07T19:59:09.907Z,19.00
2023-04-07T20:01:42.745Z,21.40
2023-04-07T20:06:43.698Z,20.50
2023-04-07T20:09:13.343Z,20.70
2023-04-07T20:11:44.871Z,21.80
2023-04-07T20:14:15.165Z,23.10
2023-04-07T20:16:49.846Z,27.00
2023-04-07T20:19:20.518Z,22.70
2023-04-07T20:21:50.068Z,19.00
2023-04-07T20:24:20.739Z,17.50
2023-04-07T20:26:50.507Z,20.40
2023-04-07T20:29:22.328Z,17.80
2023-04-07T20:31:51.827Z,19.60
2023-04-07T20:34:23.084Z,17.60
2023-04-07T20:36:52.523Z,19.40
2023-04-07T20:39:22.656Z,14.80
2023-04-07T20:41:52.960Z,20.70
2023-04-07T20:44:23.607Z,18.60
2023-04-07T20:46:53.354Z,20.20
2023-04-07T20:49:26.256Z,18.80
2023-04-07T20:51:57.519Z,17.90
2023-04-07T20:54:27.944Z,18.00
2023-04-07T20:57:01.144Z,18.70
2023-04-07T20:59:32.154Z,19.30
2023-04-07T21:02:02.705Z,17.90
2023-04-07T21:04:32.618Z,20.40
2023-04-07T21:07:02.374Z,20.10
2023-04-07T21:09:32.857Z,17.50
2023-04-07T21:12:03.899Z,21.60
2023-04-07T21:14:34.909Z,17.60
2023-04-07T21:17:04.930Z,18.70
2023-04-07T21:19:34.328Z,15.90
2023-04-07T21:22:06.207Z,16.70
2023-04-07T21:24:37.114Z,18.60
2023-04-07T21:27:06.724Z,20.60
2023-04-07T21:29:36.237Z,18.70
2023-04-07T21:32:05.757Z,20.40
2023-04-07T21:34:35.981Z,21.30
2023-04-07T21:37:05.485Z,22.20
2023-04-07T21:39:36.772Z,24.80
2023-04-07T21:42:06.137Z,21.80
2023-04-07T21:44:35.535Z,25.00
2023-04-07T21:47:07.442Z,20.90
2023-04-07T21:49:39.173Z,20.80
2023-04-07T21:52:12.636Z,23.20
2023-04-07T21:54:41.990Z,44.20
2023-04-07T21:57:15.431Z,30.20
2023-04-07T21:59:44.993Z,28.90
2023-04-07T22:02:14.963Z,33.50
2023-04-07T22:04:44.924Z,30.70
2023-04-07T22:07:16.686Z,35.80
2023-04-07T22:09:46.139Z,40.40
2023-04-07T22:12:15.563Z,35.80
2023-04-07T22:14:45.581Z,30.60
2023-04-07T22:17:16.243Z,35.40
2023-04-07T22:19:46.345Z,45.60
2023-04-07T22:22:15.859Z,46.40
2023-04-07T22:24:47.676Z,67.50
2023-04-07T22:27:17.193Z,42.00
2023-04-07T22:29:46.598Z,34.50
2023-04-07T22:32:16.885Z,37.40
2023-04-07T22:34:50.116Z,35.30
2023-04-07T22:37:19.781Z,35.30
2023-04-07T22:39:49.149Z,26.30
2023-04-07T22:42:18.544Z,31.40
2023-04-07T22:44:48.008Z,29.70
2023-04-07T22:47:17.456Z,30.40
2023-04-07T22:49:48.124Z,31.70
2023-04-07T22:52:17.471Z,34.30
2023-04-07T22:54:46.852Z,30.50
2023-04-07T22:57:16.695Z,29.30
2023-04-07T22:59:46.189Z,29.90
2023-04-07T23:02:15.508Z,27.80
2023-04-07T23:04:45.081Z,29.10
2023-04-07T23:07:16.257Z,30.20
2023-04-07T23:09:45.714Z,27.80
2023-04-07T23:12:15.741Z,26.40
2023-04-07T23:14:45.165Z,28.00
2023-04-07T23:17:14.429Z,29.40
2023-04-07T23:19:43.795Z,27.70
2023-04-07T23:22:13.212Z,28.30
2023-04-07T23:24:43.613Z,29.70
2023-04-07T23:27:13.084Z,27.90
2023-04-07T23:29:45.712Z,24.60
2023-04-07T23:32:15.422Z,27.20
2023-04-07T23:34:45.053Z,29.10
2023-04-07T23:37:17.294Z,29.30
2023-04-07T23:39:46.746Z,28.60
2023-04-07T23:42:16.858Z,32.10
2023-04-07T23:44:46.206Z,34.20
2023-04-07T23:47:15.559Z,30.50
2023-04-07T23:49:46.050Z,29.40
2023-04-07T23:52:16.567Z,32.20
2023-04-07T23:54:45.993Z,27.50
2023-04-07T23:57:15.308Z,27.70
2023-04-07T23:59:44.647Z,32.10
